Time;durP1;ratioP1;P1;durP2;ratioP2;P2;SDS_P1;SDS_P2;PMS_P1;PMS_P2;Temp;Humidity;BMP_temperature;BMP_pressure;BME280_temperature;BME280_humidity;BME280_pressure;Samples;Min_cycle;Max_cycle;Signal;HPM_P1;HPM_P2
2022/05/15 00:02:16;;;;;;;13.98;6.07;;;;;;;13.98;71.49;101759.28;5021524;28;20029;-85
2022/05/15 00:04:41;;;;;;;17.33;5.90;;;;;;;13.95;71.63;101751.75;5023231;28;20072;-85
2022/05/15 00:07:07;;;;;;;20.08;6.72;;;;;;;13.90;71.98;101755.78;5038762;28;20040;-86
2022/05/15 00:09:33;;;;;;;18.00;5.78;;;;;;;13.86;71.98;101751.88;5024157;28;20497;-85
2022/05/15 00:11:59;;;;;;;14.88;5.93;;;;;;;13.76;72.54;101744.97;5007391;28;20046;-84
2022/05/15 00:14:26;;;;;;;14.00;6.22;;;;;;;13.71;72.65;101749.84;5023696;28;20053;-85
2022/05/15 00:16:52;;;;;;;13.15;7.43;;;;;;;13.71;72.49;101752.44;5009984;28;20535;-85
2022/05/15 00:19:17;;;;;;;17.42;6.03;;;;;;;13.68;72.40;101755.34;5021646;28;20084;-85
2022/05/15 00:21:43;;;;;;;11.55;5.50;;;;;;;13.60;72.90;101755.31;5024931;28;20045;-85
2022/05/15 00:24:08;;;;;;;16.83;6.25;;;;;;;13.56;73.11;101751.34;5021417;28;20034;-86
2022/05/15 00:26:34;;;;;;;12.77;5.30;;;;;;;13.52;73.30;101745.63;5022235;28;20037;-85
2022/05/15 00:29:00;;;;;;;8.68;5.40;;;;;;;13.48;73.31;101746.91;5021878;28;20034;-85
2022/05/15 00:31:26;;;;;;;15.82;6.05;;;;;;;13.44;73.26;101748.19;5023850;28;20861;-83
2022/05/15 00:33:52;;;;;;;13.55;5.90;;;;;;;13.40;73.69;101752.06;5022471;28;20045;-85
2022/05/15 00:36:18;;;;;;;14.60;7.68;;;;;;;13.34;73.94;101745.66;5016430;28;20025;-84
2022/05/15 00:38:43;;;;;;;15.43;6.55;;;;;;;13.30;73.80;101746.06;5005436;28;20025;-85
2022/05/15 00:41:10;;;;;;;12.63;5.75;;;;;;;13.23;73.99;101740.66;5024846;28;20026;-85
2022/05/15 00:43:47;;;;;;;18.67;5.80;;;;;;;13.19;73.96;101747.16;5023902;28;20266;-85
2022/05/15 00:46:21;;;;;;;16.67;6.38;;;;;;;13.16;74.22;101750.84;5038607;28;20033;-86
2022/05/15 00:48:49;;;;;;;19.30;7.05;;;;;;;13.13;74.58;101752.94;5020200;28;20034;-84
2022/05/15 00:51:57;;;;;;;14.35;6.60;;;;;;;13.08;74.78;101750.78;5025721;28;20092;-85
2022/05/15 00:54:43;;;;;;;10.70;6.20;;;;;;;13.05;74.82;101749.31;4970419;28;20046;-84
2022/05/15 00:57:23;;;;;;;14.40;6.18;;;;;;;13.03;75.06;101746.03;5023084;28;20718;-85
2022/05/15 00:59:52;;;;;;;11.30;6.70;;;;;;;13.01;75.02;101753.16;5022030;28;20053;-84
2022/05/15 01:02:20;;;;;;;17.63;6.80;;;;;;;12.95;75.24;101750.34;5024772;28;20417;-84
2022/05/15 01:04:47;;;;;;;14.00;6.68;;;;;;;12.88;75.63;101744.91;5024243;28;20125;-85
2022/05/15 01:07:12;;;;;;;17.70;7.45;;;;;;;12.78;75.29;101747.56;5024225;28;20530;-84
2022/05/15 01:09:39;;;;;;;14.65;6.25;;;;;;;12.71;75.70;101753.50;5038910;28;20026;-85
2022/05/15 01:12:05;;;;;;;17.98;8.68;;;;;;;12.59;76.81;101750.31;5028057;28;21825;-83
2022/05/15 01:14:32;;;;;;;19.67;8.45;;;;;;;12.56;76.82;101746.19;5024990;28;20057;-84
2022/05/15 01:16:58;;;;;;;14.73;6.88;;;;;;;12.57;76.86;101750.44;5024257;28;20467;-84
2022/05/15 01:19:34;;;;;;;12.43;7.15;;;;;;;12.57;76.69;101752.25;5024693;28;20106;-84
2022/05/15 01:22:01;;;;;;;16.63;6.93;;;;;;;12.54;76.83;101758.53;5023817;28;20021;-84
2022/05/15 01:24:28;;;;;;;13.85;7.97;;;;;;;12.51;76.96;101753.63;5026817;28;20033;-84
2022/05/15 01:26:54;;;;;;;21.40;7.10;;;;;;;12.49;77.29;101752.97;5024766;28;20494;-85
2022/05/15 01:29:28;;;;;;;21.63;8.45;;;;;;;12.50;77.28;101752.00;5040880;28;20021;-85
2022/05/15 01:31:55;;;;;;;18.77;7.78;;;;;;;12.49;77.31;101750.38;5034293;28;20072;-85
2022/05/15 01:34:21;;;;;;;12.85;6.93;;;;;;;12.49;77.33;101752.97;5010136;28;20037;-85
2022/05/15 01:36:48;;;;;;;11.05;6.93;;;;;;;12.48;77.47;101755.72;5023479;28;20029;-85
2022/05/15 01:39:14;;;;;;;12.40;7.70;;;;;;;12.46;77.54;101755.84;5027414;28;20438;-83
2022/05/15 01:41:40;;;;;;;15.15;8.55;;;;;;;12.42;77.78;101754.50;5025358;28;20129;-84
2022/05/15 01:44:07;;;;;;;18.02;7.72;;;;;;;12.36;78.20;101752.50;5024944;28;20110;-85
2022/05/15 01:46:33;;;;;;;14.65;8.30;;;;;;;12.33;78.07;101752.75;5025898;28;20030;-84
2022/05/15 01:49:06;;;;;;;17.15;7.65;;;;;;;12.29;77.97;101754.84;5022396;28;20513;-84
2022/05/15 01:51:35;;;;;;;18.45;7.80;;;;;;;12.25;78.09;101756.09;5023781;28;20037;-84
2022/05/15 01:54:01;;;;;;;16.20;7.95;;;;;;;12.21;78.38;101749.53;5009523;28;20493;-85
2022/05/15 01:56:27;;;;;;;13.88;7.43;;;;;;;12.16;78.76;101760.34;5007255;28;20096;-84
2022/05/15 01:58:54;;;;;;;12.43;8.35;;;;;;;12.13;78.80;101758.06;5024314;28;20040;-85
2022/05/15 02:01:20;;;;;;;13.55;7.63;;;;;;;12.10;78.87;101755.75;5027926;28;20386;-84
2022/05/15 02:03:45;;;;;;;15.23;7.68;;;;;;;12.05;79.07;101748.38;5023898;28;20284;-84
2022/05/15 02:06:11;;;;;;;12.80;7.57;;;;;;;12.02;79.38;101751.25;5023789;28;20044;-84
2022/05/15 02:08:38;;;;;;;13.82;7.32;;;;;;;12.00;79.22;101755.78;5025830;28;20037;-85
2022/05/15 02:11:04;;;;;;;15.30;7.95;;;;;;;11.96;79.31;101753.59;5021640;28;20022;-83
2022/05/15 02:13:31;;;;;;;21.92;8.02;;;;;;;11.97;78.98;101750.84;5009178;28;20036;-85
2022/05/15 02:15:56;;;;;;;16.65;7.45;;;;;;;11.96;78.89;101750.97;5025354;28;20066;-85
2022/05/15 02:18:22;;;;;;;13.70;8.73;;;;;;;11.90;79.05;101752.38;5023315;28;20041;-85
2022/05/15 02:20:48;;;;;;;18.13;8.90;;;;;;;11.81;79.58;101747.97;5027022;28;20029;-85
2022/05/15 02:23:14;;;;;;;21.08;9.85;;;;;;;11.79;79.28;101740.34;5007739;28;20021;-83
2022/05/15 02:25:40;;;;;;;12.95;7.13;;;;;;;11.75;79.69;101751.16;5023965;28;20096;-85
2022/05/15 02:28:07;;;;;;;16.13;8.25;;;;;;;11.71;79.72;101749.81;5026630;28;20075;-84
2022/05/15 02:30:33;;;;;;;16.63;7.07;;;;;;;11.67;79.97;101742.28;5025739;28;20066;-85
2022/05/15 02:32:59;;;;;;;18.23;8.13;;;;;;;11.58;79.90;101742.31;5038178;28;20037;-85
2022/05/15 02:35:25;;;;;;;13.07;8.15;;;;;;;11.47;80.21;101749.31;5007090;28;20116;-84
2022/05/15 02:37:50;;;;;;;14.00;8.05;;;;;;;11.38;80.28;101750.13;5022889;28;20089;-85
2022/05/15 02:40:23;;;;;;;13.68;7.32;;;;;;;11.35;80.49;101741.78;5024497;28;20421;-84
2022/05/15 02:42:49;;;;;;;18.70;8.38;;;;;;;11.36;80.75;101746.84;5024835;28;20363;-84
2022/05/15 02:45:15;;;;;;;12.40;8.05;;;;;;;11.37;80.64;101740.69;5025634;28;20563;-83
2022/05/15 02:47:41;;;;;;;13.93;7.00;;;;;;;11.38;80.64;101741.53;5006412;28;20029;-83
2022/05/15 02:52:53;;;;;;;22.20;8.23;;;;;;;11.39;80.18;101746.56;5023152;28;20056;-86
2022/05/15 02:55:24;;;;;;;16.50;7.20;;;;;;;11.39;79.94;101750.94;5024430;28;20392;-84
2022/05/15 02:57:50;;;;;;;18.33;8.00;;;;;;;11.37;80.00;101750.25;5006086;28;20044;-85
2022/05/15 03:00:17;;;;;;;15.07;8.15;;;;;;;11.32;79.95;101747.25;5026197;28;20029;-84
2022/05/15 03:02:43;;;;;;;17.55;8.18;;;;;;;11.18;80.16;101744.09;5023685;28;20489;-84
2022/05/15 03:05:11;;;;;;;17.70;8.35;;;;;;;11.03;80.48;101738.50;5022552;28;20028;-84
2022/05/15 03:07:37;;;;;;;16.98;8.82;;;;;;;10.90;81.04;101749.13;5004994;28;20086;-85
2022/05/15 03:10:04;;;;;;;17.38;7.95;;;;;;;10.84;81.68;101752.28;5025711;28;20557;-84
2022/05/15 03:12:30;;;;;;;18.52;8.20;;;;;;;10.81;81.58;101749.97;5022748;28;20044;-84
2022/05/15 03:14:55;;;;;;;19.20;8.30;;;;;;;10.76;81.81;101751.34;5020333;28;20108;-85
2022/05/15 03:17:21;;;;;;;16.35;7.32;;;;;;;10.71;82.00;101746.53;5021895;28;20029;-84
2022/05/15 03:19:46;;;;;;;14.05;8.05;;;;;;;10.70;81.53;101739.72;5006772;28;20034;-84
2022/05/15 03:22:12;;;;;;;17.92;7.55;;;;;;;10.73;81.48;101743.81;5008727;28;20033;-83
2022/05/15 03:24:38;;;;;;;19.55;8.85;;;;;;;10.63;81.46;101744.59;5021336;28;20037;-84
2022/05/15 03:27:04;;;;;;;19.02;8.50;;;;;;;10.56;81.68;101743.50;5019513;28;20057;-84
2022/05/15 03:29:30;;;;;;;17.83;7.97;;;;;;;10.47;81.99;101739.94;5023903;28;20118;-83
2022/05/15 03:31:56;;;;;;;13.65;7.32;;;;;;;10.44;82.47;101747.16;5002952;28;20026;-84
2022/05/15 03:34:22;;;;;;;18.58;8.38;;;;;;;10.43;82.45;101743.72;5024512;28;20107;-85
2022/05/15 03:36:51;;;;;;;15.50;8.77;;;;;;;10.42;82.60;101747.28;5007402;28;20040;-84
2022/05/15 03:39:21;;;;;;;15.02;8.18;;;;;;;10.38;82.76;101739.88;5023829;28;20040;-83
2022/05/15 03:41:48;;;;;;;14.27;7.63;;;;;;;10.36;82.84;101737.44;5010325;28;20021;-85
2022/05/15 03:44:14;;;;;;;14.02;7.65;;;;;;;10.37;82.90;101738.25;5023039;28;20021;-84
2022/05/15 03:46:40;;;;;;;14.43;7.68;;;;;;;10.40;82.56;101733.63;5004371;28;20036;-85
2022/05/15 03:49:07;;;;;;;27.42;9.02;;;;;;;10.37;82.48;101733.88;5024813;28;20117;-84
2022/05/15 03:51:33;;;;;;;18.85;8.32;;;;;;;10.26;82.50;101732.16;5022896;28;20112;-84
2022/05/15 03:53:59;;;;;;;14.07;8.18;;;;;;;10.21;82.79;101733.50;5006550;28;20077;-84
2022/05/15 03:56:58;;;;;;;11.38;6.97;;;;;;;10.15;82.91;101724.50;5021842;28;20119;-85
2022/05/15 03:59:32;;;;;;;13.82;7.72;;;;;;;10.12;83.26;101728.19;5020587;28;20576;-83
2022/05/15 04:01:58;;;;;;;13.30;8.32;;;;;;;10.07;83.78;101727.75;5023821;28;20080;-84
2022/05/15 04:04:30;;;;;;;17.15;7.47;;;;;;;10.01;84.29;101723.09;5023693;28;20029;-84
2022/05/15 04:06:57;;;;;;;17.25;8.00;;;;;;;9.97;84.42;101720.88;5024577;28;20044;-84
2022/05/15 04:09:23;;;;;;;9.73;6.50;;;;;;;9.96;84.61;101725.22;5039110;28;20029;-84
2022/05/15 04:11:49;;;;;;;11.60;7.35;;;;;;;9.95;84.95;101726.19;5006662;28;20037;-85
2022/05/15 04:14:15;;;;;;;20.02;9.75;;;;;;;9.94;85.09;101734.91;5020186;28;20030;-85
2022/05/15 04:16:41;;;;;;;16.67;7.25;;;;;;;9.96;85.39;101735.59;5019739;28;20029;-83
2022/05/15 04:19:07;;;;;;;15.30;8.10;;;;;;;10.02;85.50;101734.25;5025372;28;20021;-85
2022/05/15 04:21:37;;;;;;;22.02;8.32;;;;;;;10.08;84.97;101736.34;5021279;28;20044;-84
2022/05/15 04:24:05;;;;;;;15.90;7.88;;;;;;;10.14;84.39;101733.22;5022379;28;20032;-85
2022/05/15 04:26:32;;;;;;;14.07;8.13;;;;;;;10.21;84.50;101730.94;5023539;28;20029;-84
2022/05/15 04:28:57;;;;;;;14.35;8.00;;;;;;;10.25;84.29;101735.72;5021099;28;20696;-84
2022/05/15 04:31:23;;;;;;;16.42;8.98;;;;;;;10.30;84.43;101741.38;5024734;28;20034;-84
2022/05/15 04:33:48;;;;;;;19.83;8.10;;;;;;;10.33;84.11;101742.88;5019931;28;20044;-85
2022/05/15 04:36:13;;;;;;;16.27;8.38;;;;;;;10.37;84.16;101736.47;5007553;28;20494;-84
2022/05/15 04:38:39;;;;;;;15.45;8.85;;;;;;;10.38;84.31;101740.72;5020818;28;20044;-84
2022/05/15 04:41:05;;;;;;;17.45;8.25;;;;;;;10.37;84.91;101748.63;5006973;28;20627;-84
2022/05/15 04:43:30;;;;;;;18.55;8.60;;;;;;;10.33;85.36;101737.69;5010920;28;20226;-85
2022/05/15 04:45:56;;;;;;;20.92;8.20;;;;;;;10.31;85.58;101742.19;5023531;28;20037;-84
2022/05/15 04:48:21;;;;;;;16.63;8.43;;;;;;;10.30;86.11;101738.78;5042949;28;20033;-83
2022/05/15 04:50:47;;;;;;;19.40;8.68;;;;;;;10.33;86.51;101737.69;5027226;28;20092;-85
2022/05/15 04:53:12;;;;;;;20.15;9.55;;;;;;;10.36;86.50;101744.38;5029111;28;20046;-85
2022/05/15 04:55:38;;;;;;;16.23;8.95;;;;;;;10.38;87.12;101751.09;5025396;28;20052;-84
2022/05/15 04:58:03;;;;;;;18.50;9.20;;;;;;;10.42;87.29;101751.66;5024119;28;20040;-84
2022/05/15 05:00:29;;;;;;;16.35;8.98;;;;;;;10.45;87.73;101748.78;5028116;28;20088;-84
2022/05/15 05:02:54;;;;;;;20.50;9.57;;;;;;;10.51;87.90;101750.88;5023824;28;20221;-84
2022/05/15 05:05:20;;;;;;;16.10;8.93;;;;;;;10.57;88.27;101759.84;5023156;28;20033;-84
2022/05/15 05:07:46;;;;;;;18.98;9.65;;;;;;;10.65;88.40;101760.84;5008518;28;20057;-83
2022/05/15 05:10:13;;;;;;;17.77;8.90;;;;;;;10.76;87.86;101757.34;5026671;28;20034;-84
2022/05/15 05:12:40;;;;;;;14.88;8.57;;;;;;;10.86;87.31;101759.94;5021944;28;20037;-84
2022/05/15 05:15:08;;;;;;;16.38;9.00;;;;;;;10.96;86.95;101755.56;5026196;28;20916;-85
2022/05/15 05:17:34;;;;;;;16.92;8.98;;;;;;;11.02;86.43;101755.06;5024900;28;20034;-84
2022/05/15 05:19:59;;;;;;;19.38;8.90;;;;;;;11.14;85.92;101753.13;5029562;28;20119;-84
2022/05/15 05:22:25;;;;;;;20.45;9.85;;;;;;;11.24;85.78;101758.31;5024429;28;20418;-84
2022/05/15 05:24:50;;;;;;;21.58;10.40;;;;;;;11.33;85.96;101757.50;5029239;28;20098;-84
2022/05/15 05:27:16;;;;;;;21.98;9.02;;;;;;;11.39;86.20;101754.34;5010878;28;20117;-85
2022/05/15 05:29:41;;;;;;;23.80;10.20;;;;;;;11.48;86.08;101752.72;5022693;28;20099;-83
2022/05/15 05:32:07;;;;;;;15.93;9.63;;;;;;;11.59;85.88;101759.53;5025314;28;20160;-84
2022/05/15 05:34:33;;;;;;;21.77;9.50;;;;;;;11.67;85.46;101757.06;5041286;28;20040;-85
2022/05/15 05:36:59;;;;;;;20.85;9.57;;;;;;;11.73;85.27;101756.47;5024604;28;20029;-84
2022/05/15 05:39:24;;;;;;;17.00;9.15;;;;;;;11.82;85.11;101762.63;5037332;28;20037;-85
2022/05/15 05:41:50;;;;;;;20.30;9.38;;;;;;;11.94;84.65;101765.91;5025383;28;20033;-85
2022/05/15 05:44:15;;;;;;;21.98;9.73;;;;;;;12.15;84.20;101766.53;5023745;28;20021;-85
2022/05/15 05:46:42;;;;;;;19.77;10.13;;;;;;;12.50;83.66;101753.78;5025928;28;20581;-85
2022/05/15 05:49:07;;;;;;;23.77;10.52;;;;;;;12.78;82.80;101752.78;5022294;28;20029;-85
2022/05/15 05:51:33;;;;;;;17.42;9.73;;;;;;;13.12;82.11;101748.72;5028235;28;20113;-84
2022/05/15 05:53:58;;;;;;;18.70;9.82;;;;;;;13.48;80.73;101749.50;5023565;28;20119;-84
2022/05/15 05:56:23;;;;;;;23.08;11.75;;;;;;;13.90;78.35;101751.41;5029529;28;20045;-86
2022/05/15 05:58:49;;;;;;;21.75;9.50;;;;;;;14.35;75.53;101746.88;5026470;28;20036;-85
2022/05/15 06:01:14;;;;;;;24.48;9.85;;;;;;;14.75;72.83;101748.00;5012233;28;20030;-84
2022/05/15 06:06:24;;;;;;;28.08;10.75;;;;;;;15.06;70.54;101747.38;5039622;28;20037;-83
2022/05/15 06:08:50;;;;;;;18.00;9.35;;;;;;;15.10;70.06;101752.09;5024357;28;20017;-84
2022/05/15 06:11:15;;;;;;;17.63;8.90;;;;;;;15.22;70.35;101746.56;5027086;28;20021;-84
2022/05/15 06:13:41;;;;;;;15.43;9.00;;;;;;;15.54;68.75;101757.00;5025440;28;20490;-83
2022/05/15 06:16:08;;;;;;;22.30;9.95;;;;;;;15.81;66.76;101756.84;5027341;28;20041;-85
2022/05/15 06:18:34;;;;;;;17.42;8.10;;;;;;;15.81;67.64;101746.38;5027108;28;20152;-84
2022/05/15 06:20:59;;;;;;;18.23;9.35;;;;;;;15.92;67.00;101744.22;5007982;28;20041;-84
2022/05/15 06:23:25;;;;;;;19.65;9.15;;;;;;;16.20;65.81;101751.63;5043226;28;20091;-83
2022/05/15 06:25:50;;;;;;;17.15;8.93;;;;;;;16.36;64.78;101753.34;5045209;28;20059;-84
2022/05/15 06:28:16;;;;;;;19.02;8.85;;;;;;;16.44;64.87;101752.50;5046972;28;20033;-84
2022/05/15 06:30:42;;;;;;;19.58;8.18;;;;;;;16.59;65.05;101739.50;5060261;28;20026;-83
2022/05/15 06:33:08;;;;;;;14.63;8.10;;;;;;;16.50;65.15;101736.09;5042308;28;20485;-83
2022/05/15 06:35:33;;;;;;;15.05;7.57;;;;;;;16.69;63.90;101740.09;5009581;28;20060;-85
2022/05/15 06:38:03;;;;;;;19.83;7.95;;;;;;;17.02;64.26;101742.50;5020589;28;20037;-84
2022/05/15 06:40:29;;;;;;;17.85;9.23;;;;;;;17.28;64.00;101740.31;5024849;28;20124;-85
2022/05/15 06:42:57;;;;;;;13.55;7.90;;;;;;;17.38;63.39;101739.25;5023216;28;20104;-84
2022/05/15 06:45:23;;;;;;;15.93;7.78;;;;;;;17.60;62.99;101727.88;5007800;28;20033;-84
2022/05/15 06:47:49;;;;;;;14.40;7.55;;;;;;;17.87;62.19;101730.91;5024813;28;20390;-84
2022/05/15 06:50:14;;;;;;;25.65;10.85;;;;;;;18.22;61.29;101731.16;5022944;28;20041;-84
2022/05/15 06:52:40;;;;;;;15.63;8.23;;;;;;;18.41;60.30;101735.81;5017429;28;20037;-84
2022/05/15 06:55:08;;;;;;;20.63;7.03;;;;;;;18.68;59.19;101728.19;5026773;28;20040;-84
2022/05/15 06:57:34;;;;;;;20.02;7.57;;;;;;;18.97;58.95;101726.50;5025067;28;20417;-83
2022/05/15 07:00:10;;;;;;;14.88;6.70;;;;;;;19.09;56.43;101732.03;5023371;28;20033;-85
2022/05/15 07:02:36;;;;;;;13.30;6.60;;;;;;;19.57;56.59;101726.91;5024253;28;20033;-84
2022/05/15 07:05:03;;;;;;;16.08;6.88;;;;;;;19.78;53.52;101726.06;5023163;28;20029;-84
2022/05/15 07:07:29;;;;;;;12.93;5.97;;;;;;;20.00;53.67;101724.13;5023565;28;20063;-83
2022/05/15 07:09:55;;;;;;;12.93;5.80;;;;;;;20.14;54.34;101723.19;5019665;28;20040;-84
2022/05/15 07:12:20;;;;;;;13.43;6.38;;;;;;;20.61;52.28;101725.97;5007270;28;20091;-85
2022/05/15 07:14:46;;;;;;;10.95;5.85;;;;;;;21.14;52.25;101723.34;5024360;28;20037;-84
2022/05/15 07:17:11;;;;;;;17.75;5.63;;;;;;;21.56;51.14;101717.84;5023491;28;20040;-84
2022/05/15 07:19:37;;;;;;;17.67;5.55;;;;;;;21.49;50.88;101722.31;5023705;28;20059;-84
2022/05/15 07:22:05;;;;;;;17.33;6.25;;;;;;;21.62;49.02;101727.56;5021391;28;20045;-85
2022/05/15 07:24:30;;;;;;;17.92;7.55;;;;;;;21.33;48.98;101724.34;5022411;28;20565;-84
2022/05/15 07:26:56;;;;;;;13.10;6.40;;;;;;;21.42;49.33;101721.47;5023291;28;20136;-85
2022/05/15 07:29:24;;;;;;;11.40;5.93;;;;;;;21.62;50.28;101717.00;5024029;28;20048;-84
2022/05/15 07:31:51;;;;;;;14.75;6.20;;;;;;;21.63;48.78;101723.91;5025909;28;20034;-84
2022/05/15 07:34:17;;;;;;;13.18;6.28;;;;;;;21.89;49.06;101723.03;5006494;28;20030;-84
2022/05/15 07:36:43;;;;;;;19.83;8.32;;;;;;;22.13;48.39;101724.16;5020164;28;20033;-84
2022/05/15 07:39:08;;;;;;;14.70;7.20;;;;;;;22.49;47.68;101727.22;5005835;28;20087;-84
2022/05/15 07:41:34;;;;;;;15.60;5.20;;;;;;;23.09;47.66;101719.69;5022300;28;20494;-85
2022/05/15 07:43:59;;;;;;;22.52;7.78;;;;;;;23.34;45.33;101724.13;5025196;28;20026;-84
2022/05/15 07:46:25;;;;;;;14.55;6.25;;;;;;;23.43;45.68;101722.00;5024534;28;20131;-85
2022/05/15 07:48:50;;;;;;;18.05;6.63;;;;;;;23.39;46.72;101726.91;5021937;28;20544;-83
2022/05/15 07:51:16;;;;;;;16.08;6.20;;;;;;;23.38;45.14;101722.66;5024068;28;20026;-84
2022/05/15 07:53:42;;;;;;;16.45;6.63;;;;;;;23.38;45.64;101716.56;5022685;28;20467;-84
2022/05/15 07:56:12;;;;;;;12.57;5.47;;;;;;;23.80;45.60;101712.25;5022344;28;20029;-84
2022/05/15 07:58:38;;;;;;;16.70;5.22;;;;;;;23.81;42.70;101713.03;5021280;28;20034;-84
2022/05/15 08:01:05;;;;;;;11.35;5.28;;;;;;;23.90;43.17;101711.72;5034544;28;20026;-84
2022/05/15 08:03:37;;;;;;;12.85;5.43;;;;;;;24.19;42.58;101704.81;5025276;28;20025;-83
2022/05/15 08:08:47;;;;;;;13.93;4.47;;;;;;;24.59;41.12;101703.47;5038909;28;20049;-84
2022/05/15 08:11:13;;;;;;;11.55;5.60;;;;;;;24.80;41.98;101702.09;5021714;28;20067;-85
2022/05/15 08:13:38;;;;;;;13.63;4.93;;;;;;;24.94;41.23;101694.72;5024949;28;20025;-84
2022/05/15 08:16:04;;;;;;;14.00;4.78;;;;;;;25.42;40.37;101697.13;5008346;28;20395;-84
2022/05/15 08:24:00;;;;;;;10.63;5.10;;;;;;;25.36;39.58;101678.69;5019831;28;20029;-85
2022/05/15 08:26:27;;;;;;;17.38;4.90;;;;;;;25.37;38.76;101681.13;5039749;28;20056;-85
2022/05/15 08:28:53;;;;;;;15.35;4.63;;;;;;;25.48;39.17;101674.16;5017540;28;21030;-84
2022/05/15 08:31:20;;;;;;;15.52;5.00;;;;;;;25.62;38.60;101672.88;5020045;28;20116;-85
2022/05/15 08:33:47;;;;;;;15.13;4.20;;;;;;;25.47;39.41;101669.91;5021821;28;20143;-83
2022/05/15 08:36:13;;;;;;;17.10;4.13;;;;;;;25.75;38.49;101669.13;5026691;28;20038;-84
2022/05/15 08:38:39;;;;;;;9.45;3.40;;;;;;;26.09;38.41;101663.94;5016718;28;20037;-85
2022/05/15 08:41:23;;;;;;;16.48;4.63;;;;;;;25.98;38.85;101660.28;5032755;28;20033;-83
2022/05/15 08:43:58;;;;;;;12.82;3.10;;;;;;;26.23;37.12;101659.91;5019296;28;20103;-84
2022/05/15 08:46:29;;;;;;;7.82;3.33;;;;;;;26.36;36.36;101660.66;5024456;28;20033;-84
2022/05/15 08:49:11;;;;;;;11.10;4.20;;;;;;;26.48;33.21;101657.91;5015373;28;20044;-83
2022/05/15 08:51:43;;;;;;;12.90;4.75;;;;;;;26.68;35.02;101662.78;5019201;28;20068;-84
2022/05/15 08:54:11;;;;;;;16.30;3.85;;;;;;;26.91;35.56;101649.28;5018984;28;21115;-84
2022/05/15 08:56:46;;;;;;;13.65;4.43;;;;;;;26.81;32.47;101649.13;5021674;28;20033;-84
2022/05/15 08:59:30;;;;;;;11.05;3.47;;;;;;;26.64;31.51;101659.78;5023062;28;20030;-81
2022/05/15 09:01:58;;;;;;;12.70;3.13;;;;;;;26.51;31.44;101649.47;5022022;28;20613;-88
2022/05/15 09:04:26;;;;;;;12.80;3.70;;;;;;;26.86;32.79;101656.38;5027023;28;20021;-83
2022/05/15 09:07:17;;;;;;;9.35;2.72;;;;;;;27.02;31.58;101660.88;5021414;28;20045;-83
2022/05/15 09:10:12;;;;;;;16.23;3.10;;;;;;;27.11;31.54;101664.72;5019638;28;20029;-84
2022/05/15 09:12:46;;;;;;;16.02;3.45;;;;;;;27.00;32.11;101652.31;5033972;28;20037;-83
2022/05/15 09:15:18;;;;;;;11.27;3.35;;;;;;;27.22;32.72;101659.50;5015843;28;20224;-83
2022/05/15 09:17:57;;;;;;;13.87;3.17;;;;;;;27.16;31.51;101655.97;5024129;28;20033;-83
2022/05/15 09:20:25;;;;;;;11.02;3.05;;;;;;;27.07;31.77;101649.47;5017043;28;20048;-83
2022/05/15 09:22:58;;;;;;;17.35;4.43;;;;;;;26.85;31.92;101647.59;5004187;28;20057;-84
2022/05/15 09:25:25;;;;;;;15.00;4.15;;;;;;;26.84;32.17;101647.84;5038280;28;20029;-84
2022/05/15 09:28:06;;;;;;;12.00;3.60;;;;;;;26.44;32.60;101638.97;5022759;28;20584;-84
2022/05/15 09:30:45;;;;;;;13.88;3.55;;;;;;;26.66;33.01;101643.59;5021051;28;20037;-84
2022/05/15 09:33:23;;;;;;;15.45;4.05;;;;;;;26.58;32.58;101640.28;5021618;28;20029;-81
2022/05/15 09:35:48;;;;;;;16.15;3.50;;;;;;;26.59;33.70;101639.22;5039533;28;20033;-83
2022/05/15 09:38:27;;;;;;;12.82;3.53;;;;;;;26.80;31.73;101640.38;5007232;28;20040;-83
2022/05/15 09:43:54;;;;;;;9.82;3.00;;;;;;;26.93;32.53;101635.72;5021059;28;20029;-82
2022/05/15 09:46:25;;;;;;;10.73;2.95;;;;;;;26.89;32.55;101637.28;5025159;28;20121;-83
2022/05/15 09:49:08;;;;;;;10.25;3.55;;;;;;;26.80;31.83;101626.22;5010026;28;20091;-83
2022/05/15 09:51:52;;;;;;;11.20;3.70;;;;;;;27.34;32.99;101623.75;5022987;28;20052;-84
2022/05/15 09:54:33;;;;;;;14.40;4.55;;;;;;;27.45;30.72;101626.56;5024018;28;20032;-83
2022/05/15 09:57:22;;;;;;;10.70;3.45;;;;;;;27.49;31.62;101620.47;5025352;28;20056;-81
2022/05/15 09:59:57;;;;;;;10.13;3.45;;;;;;;27.16;30.87;101618.72;5026582;28;20121;-88
2022/05/15 10:02:27;;;;;;;14.27;3.22;;;;;;;27.10;31.56;101622.38;5024872;28;20037;-83
2022/05/15 10:04:53;;;;;;;12.63;3.47;;;;;;;26.92;31.75;101624.28;5041822;28;20494;-85
2022/05/15 10:07:33;;;;;;;12.27;3.50;;;;;;;26.89;32.28;101623.97;5042202;28;20079;-84
2022/05/15 10:10:35;;;;;;;11.23;3.45;;;;;;;26.96;31.58;101629.94;5023020;28;20871;-83
2022/05/15 10:13:09;;;;;;;13.30;3.67;;;;;;;26.95;31.77;101622.97;5011792;28;20657;-83
2022/05/15 10:15:45;;;;;;;11.27;3.17;;;;;;;27.02;32.88;101617.50;5042731;28;20040;-83
2022/05/15 10:18:16;;;;;;;10.02;3.80;;;;;;;27.25;33.27;101616.44;5025146;28;20034;-80
2022/05/15 10:20:45;;;;;;;14.52;3.38;;;;;;;27.28;32.77;101618.66;5025825;28;20026;-82
2022/05/15 10:23:25;;;;;;;8.75;3.13;;;;;;;27.43;32.78;101610.81;5025674;28;20033;-83
2022/05/15 10:26:17;;;;;;;10.23;2.80;;;;;;;27.39;33.69;101607.06;5023786;28;20120;-84
2022/05/15 10:28:45;;;;;;;12.90;3.80;;;;;;;27.58;31.75;101602.19;5020993;28;20252;-81
2022/05/15 10:31:30;;;;;;;12.40;3.28;;;;;;;27.49;32.42;101595.72;5027825;28;20501;-83
2022/05/15 10:34:03;;;;;;;9.93;3.22;;;;;;;27.58;30.75;101602.19;5020392;28;20081;-84
2022/05/15 10:36:49;;;;;;;8.45;2.80;;;;;;;27.41;31.13;101602.28;5023705;28;20492;-84
2022/05/15 10:39:37;;;;;;;9.93;3.08;;;;;;;27.11;32.14;101600.84;5010779;28;20071;-82
2022/05/15 10:42:22;;;;;;;8.57;2.65;;;;;;;27.40;31.63;101595.34;5016455;28;20044;-83
2022/05/15 10:45:27;;;;;;;6.57;2.42;;;;;;;27.75;30.57;101592.25;5029280;28;20045;-81
2022/05/15 10:48:40;;;;;;;7.47;2.50;;;;;;;27.48;31.75;101589.59;5022888;28;20045;-83
2022/05/15 10:51:19;;;;;;;9.45;3.03;;;;;;;27.71;30.71;101591.13;5017852;28;20029;-81
2022/05/15 10:57:24;;;;;;;10.15;2.60;;;;;;;27.47;31.74;101585.31;5022600;28;20081;-84
2022/05/15 11:00:09;;;;;;;9.85;2.90;;;;;;;27.35;30.65;101580.13;5030254;28;20077;-84
2022/05/15 11:02:54;;;;;;;9.10;2.95;;;;;;;27.38;31.87;101578.81;5026942;28;20164;-84
2022/05/15 11:05:22;;;;;;;8.30;2.70;;;;;;;27.55;30.95;101574.19;5023768;28;20094;-83
2022/05/15 11:07:52;;;;;;;12.23;2.70;;;;;;;27.57;32.07;101579.28;5014644;28;20131;-84
2022/05/15 11:10:23;;;;;;;10.18;2.88;;;;;;;27.32;31.24;101582.47;5033421;28;20568;-83
2022/05/15 11:13:11;;;;;;;11.10;2.60;;;;;;;27.41;33.05;101580.16;5026598;28;20436;-84
2022/05/15 11:16:02;;;;;;;9.75;3.03;;;;;;;27.76;30.92;101564.56;5030353;28;20038;-81
2022/05/15 11:19:11;;;;;;;8.38;3.30;;;;;;;27.69;32.36;101571.94;5015717;28;20116;-83
2022/05/15 11:21:48;;;;;;;13.75;2.85;;;;;;;27.62;32.40;101563.34;5029448;28;20037;-84
2022/05/15 11:24:35;;;;;;;9.20;2.42;;;;;;;27.82;30.97;101548.59;5044970;28;20092;-84
2022/05/15 11:27:10;;;;;;;11.68;3.22;;;;;;;27.54;31.95;101545.16;5025461;28;20191;-82
2022/05/15 11:29:42;;;;;;;12.00;3.58;;;;;;;27.52;32.05;101552.59;5028075;28;20025;-83
2022/05/15 11:32:28;;;;;;;10.10;2.65;;;;;;;27.52;32.09;101548.09;5023384;28;20037;-84
2022/05/15 11:35:18;;;;;;;8.75;2.50;;;;;;;27.37;31.80;101542.63;5028363;28;20076;-84
2022/05/15 11:37:55;;;;;;;7.75;2.20;;;;;;;27.60;32.54;101535.38;5015429;28;20078;-83
2022/05/15 11:40:29;;;;;;;12.20;2.67;;;;;;;27.55;32.13;101531.59;5009566;28;20071;-84
2022/05/15 11:42:55;;;;;;;9.55;2.05;;;;;;;27.71;32.17;101529.88;5005895;28;20033;-84
2022/05/15 11:45:27;;;;;;;7.88;2.80;;;;;;;27.82;31.63;101525.44;5030354;28;20493;-84
2022/05/15 11:48:23;;;;;;;11.02;2.30;;;;;;;28.06;32.55;101528.56;5014182;28;20041;-84
2022/05/15 11:50:56;;;;;;;11.05;2.83;;;;;;;27.80;31.34;101524.88;5016707;28;20107;-85